This is the latest recevied weather packets stored in our database for station/object EA3ANS-1. If no packets are shown the sender has not sent any weather packets the latest 10 day(s).
| Time | Temp. | Humidity | Pressure | Rain* | Wind** | Luminosity | Snow |
|---|---|---|---|---|---|---|---|
| 1787757964 | 33.33° C | - | 1009.8 hPa | 0 mm | 2.24 m/s, 148° | - | - |
| 1787757356 | 32.78° C | - | 1009.8 hPa | 0 mm | 2.24 m/s, 181° | - | - |
| 1787756743 | 32.78° C | - | 1010 hPa | 0 mm | 0.89 m/s, 94° | - | - |
| 1787756241 | 32.22° C | - | 1010.1 hPa | 0 mm | 0.45 m/s, 14° | - | - |
| 1787756200 | 32.22° C | - | 1010.1 hPa | 0 mm | 0.45 m/s, 14° | - | - |
| 1787756143 | 32.22° C | - | 1010.1 hPa | 0 mm | 0.45 m/s, 14° | - | - |
| 1787755544 | 32.22° C | - | 1010.2 hPa | 0 mm | 2.24 m/s, 179° | - | - |
| 1787754946 | 32.78° C | - | 1010.5 hPa | 0 mm | 2.24 m/s, 167° | - | - |
| 1787754349 | 32.22° C | - | 1010.6 hPa | 0 mm | 0.89 m/s, 113° | - | - |
| 1787753750 | 31.67° C | - | 1010.9 hPa | 0 mm | 1.79 m/s, 172° | - | - |
| 1787753153 | 31.11° C | - | 1011.1 hPa | 0 mm | 2.24 m/s, 204° | - | - |
| 1787752540 | 31.11° C | - | 1011.1 hPa | 0 mm | 1.34 m/s, 186° | - | - |
| 1787751943 | 31.11° C | - | 1011 hPa | 0 mm | 1.79 m/s, 221° | - | - |
| 1787751345 | 30.56° C | - | 1010.6 hPa | 0 mm | 0 m/s | - | - |
| 1787750747 | 31.11° C | - | 1010.6 hPa | 0 mm | 1.79 m/s, 146° | - | - |
| 1787750150 | 30.56° C | - | 1010.8 hPa | 0 mm | 1.79 m/s, 138° | - | - |
| 1787749552 | 30.56° C | - | 1010.8 hPa | 0 mm | 2.68 m/s, 80° | - | - |
| 1787748955 | 30° C | - | 1010.9 hPa | 0 mm | 2.68 m/s, 98° | - | - |
| 1787748343 | 30° C | - | 1011.1 hPa | 0 mm | 2.24 m/s, 122° | - | - |
| 1787747746 | 30° C | - | 1011.3 hPa | 0 mm | 2.24 m/s, 63° | - | - |
| 1787747145 | 29.44° C | - | 1011.4 hPa | 0 mm | 1.34 m/s, 13° | - | - |
| 1787746548 | 29.44° C | - | 1011.6 hPa | 0 mm | 1.34 m/s, 236° | - | - |
| 1787745951 | 30° C | - | 1012 hPa | 0 mm | 1.34 m/s, 163° | - | - |
| 1787745353 | 28.89° C | - | 1012 hPa | 0 mm | 1.34 m/s, 111° | - | - |
| 1787744753 | 28.89° C | - | 1012.3 hPa | 0 mm | 0.89 m/s, 35° | - | - |
* Rain latest hour (hover to see other rain measurements)
** Current wind speed in m/s (hover to see current wind gust speed)